createdAt,value
2019-04-25T00:00:38.033Z,85.40
2019-04-25T00:03:06.819Z,86.30
2019-04-25T00:05:35.274Z,86.00
2019-04-25T00:08:04.397Z,85.80
2019-04-25T00:10:33.079Z,86.30
2019-04-25T00:13:03.625Z,86.40
2019-04-25T00:15:51.945Z,86.30
2019-04-25T00:18:22.110Z,88.20
2019-04-25T00:20:55.265Z,86.60
2019-04-25T00:23:23.806Z,86.60
2019-04-25T00:25:53.902Z,87.00
2019-04-25T00:28:22.346Z,87.10
2019-04-25T00:30:52.251Z,87.20
2019-04-25T00:33:21.596Z,87.30
2019-04-25T00:35:51.684Z,87.20
2019-04-25T00:38:22.110Z,87.40
2019-04-25T00:40:52.421Z,87.30
2019-04-25T00:43:21.471Z,87.30
2019-04-25T00:45:51.642Z,87.80
2019-04-25T00:48:20.400Z,87.60
2019-04-25T00:50:48.943Z,87.60
2019-04-25T00:53:17.423Z,87.70
2019-04-25T00:55:46.446Z,88.00
2019-04-25T00:58:16.713Z,88.10
2019-04-25T01:00:55.895Z,87.90
2019-04-25T01:03:26.430Z,88.60
2019-04-25T01:05:54.881Z,88.20
2019-04-25T01:08:23.449Z,88.10
2019-04-25T01:10:52.313Z,88.10
2019-04-25T01:13:22.340Z,88.20
2019-04-25T01:15:52.567Z,88.00
2019-04-25T01:18:21.330Z,88.30
2019-04-25T01:20:53.638Z,88.30
2019-04-25T01:23:23.715Z,88.30
2019-04-25T01:25:53.786Z,88.30
2019-04-25T01:28:24.283Z,88.10
2019-04-25T01:30:54.792Z,87.90
2019-04-25T01:33:23.988Z,88.20
2019-04-25T01:35:54.883Z,88.30
2019-04-25T01:38:28.947Z,88.40
2019-04-25T01:40:59.105Z,88.50
2019-04-25T01:43:29.198Z,88.30
2019-04-25T01:45:57.996Z,88.40
2019-04-25T01:48:26.549Z,88.50
2019-04-25T01:50:55.498Z,88.40
2019-04-25T01:53:24.256Z,88.60
2019-04-25T01:56:01.006Z,88.70
2019-04-25T01:58:23.630Z,88.40
2019-04-25T02:00:54.722Z,88.70
2019-04-25T02:03:26.648Z,88.60
2019-04-25T02:05:54.900Z,88.20
2019-04-25T02:08:23.899Z,88.50
2019-04-25T02:11:06.070Z,88.40
2019-04-25T02:13:35.832Z,88.00
2019-04-25T02:16:05.315Z,88.20
2019-04-25T02:18:33.934Z,87.90
2019-04-25T02:21:04.407Z,88.20
2019-04-25T02:23:34.099Z,87.90
2019-04-25T02:26:13.895Z,88.00
2019-04-25T02:28:33.826Z,87.90
2019-04-25T02:31:08.182Z,87.70
2019-04-25T02:33:34.048Z,88.00
2019-04-25T02:36:08.270Z,88.00
2019-04-25T02:38:34.263Z,87.50
2019-04-25T02:41:06.861Z,87.30
2019-04-25T02:43:35.049Z,87.20
2019-04-25T02:46:12.141Z,87.50
2019-04-25T02:48:44.074Z,87.50
2019-04-25T02:51:14.583Z,88.30
2019-04-25T02:53:44.887Z,87.30
2019-04-25T02:56:27.409Z,87.60
2019-04-25T02:58:44.292Z,87.60
2019-04-25T03:01:21.980Z,87.70
2019-04-25T03:03:45.940Z,87.50
2019-04-25T03:06:15.045Z,87.30
2019-04-25T03:08:44.943Z,87.20
2019-04-25T03:11:14.943Z,87.20
2019-04-25T03:13:44.192Z,87.30
2019-04-25T03:16:13.954Z,86.60
2019-04-25T03:18:44.566Z,87.30
2019-04-25T03:21:17.828Z,87.20
2019-04-25T03:23:48.748Z,87.00
2019-04-25T03:26:17.406Z,86.80
2019-04-25T03:28:45.893Z,86.90
2019-04-25T03:31:22.170Z,87.00
2019-04-25T03:33:45.990Z,87.20
2019-04-25T03:36:17.054Z,87.20
2019-04-25T03:38:44.969Z,87.20
2019-04-25T03:41:14.782Z,87.20
2019-04-25T03:43:44.255Z,86.90
2019-04-25T03:46:14.119Z,87.10
2019-04-25T03:48:43.963Z,86.60
2019-04-25T03:51:15.379Z,86.70
2019-04-25T03:53:43.755Z,86.70
2019-04-25T03:56:12.973Z,86.90
2019-04-25T03:58:43.956Z,86.90
2019-04-25T04:01:15.382Z,86.90
2019-04-25T04:03:43.965Z,86.90
2019-04-25T04:06:14.199Z,86.50
2019-04-25T04:08:44.301Z,86.50
2019-04-25T04:11:14.601Z,86.20
2019-04-25T04:13:44.019Z,86.30
2019-04-25T04:16:14.119Z,86.40
2019-04-25T04:18:44.238Z,86.20
2019-04-25T04:21:16.245Z,85.80
2019-04-25T04:23:46.378Z,86.90
2019-04-25T04:26:15.697Z,85.80
2019-04-25T04:28:44.279Z,85.40
2019-04-25T04:31:14.351Z,85.10
2019-04-25T04:33:43.179Z,85.00
2019-04-25T04:36:11.629Z,85.00
2019-04-25T04:38:40.133Z,84.80
2019-04-25T04:41:09.628Z,84.50
2019-04-25T04:43:37.527Z,84.30
2019-04-25T04:46:06.017Z,84.10
2019-04-25T04:48:34.462Z,83.90
2019-04-25T04:51:03.443Z,83.70
2019-04-25T04:53:33.881Z,83.40
2019-04-25T04:56:02.333Z,83.40
2019-04-25T04:58:30.781Z,82.70
2019-04-25T05:00:59.258Z,82.40
2019-04-25T05:03:34.206Z,81.40
2019-04-25T05:06:14.989Z,81.80
2019-04-25T05:08:44.949Z,82.10
2019-04-25T05:11:15.422Z,81.60
2019-04-25T05:13:44.094Z,81.90
2019-04-25T05:16:15.033Z,81.40
2019-04-25T05:18:43.772Z,81.00
2019-04-25T05:21:11.862Z,80.60
2019-04-25T05:23:41.153Z,79.80
2019-04-25T05:26:09.591Z,79.80
2019-04-25T05:28:38.071Z,79.50
2019-04-25T05:31:10.930Z,78.90
2019-04-25T05:33:39.376Z,78.30
2019-04-25T05:36:07.938Z,77.90
2019-04-25T05:38:36.380Z,77.90
2019-04-25T05:41:06.538Z,77.90
2019-04-25T05:43:35.011Z,77.40
2019-04-25T05:46:03.480Z,76.70
2019-04-25T05:48:31.981Z,76.30
2019-04-25T05:51:00.466Z,75.50
2019-04-25T05:53:31.424Z,75.20
2019-04-25T05:55:59.928Z,75.80
2019-04-25T05:58:28.387Z,75.30
2019-04-25T06:00:59.821Z,74.90
2019-04-25T06:03:28.339Z,75.00
2019-04-25T06:05:56.854Z,74.90
2019-04-25T06:08:27.964Z,74.00
2019-04-25T06:10:58.239Z,74.20
2019-04-25T06:13:31.344Z,74.40
2019-04-25T06:16:03.482Z,74.10
2019-04-25T06:18:33.935Z,73.90
2019-04-25T06:21:03.170Z,73.80
2019-04-25T06:23:51.917Z,73.90
2019-04-25T06:26:32.739Z,75.00
2019-04-25T06:28:57.069Z,73.30
2019-04-25T06:31:23.832Z,72.80
2019-04-25T06:33:53.971Z,72.30
2019-04-25T06:36:24.566Z,73.20
2019-04-25T06:38:56.464Z,72.30
2019-04-25T06:41:35.960Z,71.80
2019-04-25T06:44:10.572Z,72.80
2019-04-25T06:46:53.558Z,73.80
2019-04-25T06:49:27.716Z,73.60
2019-04-25T06:52:19.170Z,72.40
2019-04-25T06:54:47.629Z,71.90
2019-04-25T06:57:16.135Z,72.20
2019-04-25T06:59:44.644Z,72.20
2019-04-25T07:02:14.029Z,71.10
2019-04-25T07:04:43.494Z,71.40
2019-04-25T07:07:14.838Z,71.10
2019-04-25T07:09:43.399Z,70.70
2019-04-25T07:12:13.441Z,70.40
2019-04-25T07:14:43.871Z,70.90
2019-04-25T07:17:14.153Z,70.90
2019-04-25T07:19:44.057Z,70.50
2019-04-25T07:22:14.065Z,71.30
2019-04-25T07:24:43.987Z,68.90
2019-04-25T07:27:17.024Z,69.40
2019-04-25T07:30:02.032Z,69.30
2019-04-25T07:32:41.669Z,68.60
2019-04-25T07:35:10.245Z,68.80
2019-04-25T07:37:41.578Z,69.40
2019-04-25T07:40:09.894Z,68.70
2019-04-25T07:42:37.566Z,67.90
2019-04-25T07:45:08.927Z,68.90
2019-04-25T07:47:37.713Z,68.40
2019-04-25T07:50:09.481Z,68.30
2019-04-25T07:52:38.059Z,66.90
2019-04-25T07:55:06.813Z,67.50
2019-04-25T07:57:35.909Z,66.80
2019-04-25T08:00:13.311Z,67.30
2019-04-25T08:02:43.440Z,67.00
2019-04-25T08:05:14.488Z,66.40
2019-04-25T08:07:43.669Z,65.70
2019-04-25T08:10:14.069Z,65.50
2019-04-25T08:12:44.144Z,66.70
2019-04-25T08:15:16.051Z,65.50
2019-04-25T08:18:04.003Z,62.50
2019-04-25T08:20:43.901Z,63.60
2019-04-25T08:23:13.871Z,63.60
2019-04-25T08:25:43.275Z,63.00
2019-04-25T08:28:11.223Z,63.10
2019-04-25T08:30:39.748Z,63.50
2019-04-25T08:33:09.897Z,62.70
2019-04-25T08:35:39.918Z,60.20
2019-04-25T08:38:08.453Z,62.30
2019-04-25T08:40:37.703Z,62.70
2019-04-25T08:43:07.515Z,62.70
2019-04-25T08:45:37.379Z,62.40
2019-04-25T08:48:06.642Z,61.60
2019-04-25T08:50:41.087Z,60.50
2019-04-25T08:53:10.212Z,60.20
2019-04-25T08:55:44.338Z,60.60
2019-04-25T08:58:17.793Z,60.70
2019-04-25T09:01:04.422Z,60.00
2019-04-25T09:03:40.341Z,59.70
2019-04-25T09:06:09.444Z,58.80
2019-04-25T09:08:38.450Z,58.00
2019-04-25T09:11:07.898Z,57.80
2019-04-25T09:13:38.094Z,58.50
2019-04-25T09:16:06.691Z,58.40
2019-04-25T09:18:36.996Z,59.40
2019-04-25T09:21:05.616Z,58.50
2019-04-25T09:23:36.414Z,58.30
2019-04-25T09:26:05.672Z,58.10
2019-04-25T09:28:37.608Z,58.00
2019-04-25T09:31:04.906Z,57.20
2019-04-25T09:33:35.132Z,57.70
2019-04-25T09:36:04.889Z,57.10
2019-04-25T09:38:35.657Z,56.00
2019-04-25T09:41:04.721Z,55.90
2019-04-25T09:43:33.569Z,56.40
2019-04-25T09:46:06.697Z,56.60
2019-04-25T09:48:44.578Z,56.50
2019-04-25T09:51:17.751Z,56.70
2019-04-25T09:53:51.215Z,56.10
2019-04-25T09:56:27.685Z,57.00
2019-04-25T09:58:57.883Z,55.90
2019-04-25T10:01:27.411Z,55.00
2019-04-25T10:03:55.952Z,56.00
2019-04-25T10:06:24.966Z,54.00
2019-04-25T10:08:54.247Z,54.40
2019-04-25T10:11:23.746Z,55.80
2019-04-25T10:14:06.804Z,55.10
2019-04-25T10:16:35.364Z,55.20
2019-04-25T10:19:04.146Z,53.50
2019-04-25T10:21:34.183Z,53.30
2019-04-25T10:24:03.584Z,52.30
2019-04-25T10:26:34.770Z,51.00
2019-04-25T10:29:03.340Z,52.60
2019-04-25T10:31:31.839Z,51.80
2019-04-25T10:34:00.353Z,51.60
2019-04-25T10:36:28.809Z,51.50
2019-04-25T10:39:07.610Z,52.00
2019-04-25T10:41:27.750Z,51.70
2019-04-25T10:43:56.325Z,53.10
2019-04-25T10:46:24.802Z,52.30
2019-04-25T10:48:55.912Z,52.20
2019-04-25T10:51:23.969Z,51.70
2019-04-25T10:53:53.909Z,50.80
2019-04-25T10:56:24.316Z,50.30
2019-04-25T10:58:54.825Z,49.40
2019-04-25T11:01:24.441Z,49.90
2019-04-25T11:03:55.730Z,50.60
2019-04-25T11:06:26.082Z,50.90
2019-04-25T11:08:56.485Z,52.60
2019-04-25T11:11:25.319Z,51.60
2019-04-25T11:13:56.685Z,51.10
2019-04-25T11:16:25.484Z,51.60
2019-04-25T11:18:54.835Z,50.40
2019-04-25T11:21:24.258Z,51.20
2019-04-25T11:23:55.022Z,49.70
2019-04-25T11:26:23.502Z,49.40
2019-04-25T11:28:52.773Z,49.10
2019-04-25T11:31:23.619Z,49.20
2019-04-25T11:33:53.970Z,50.10
2019-04-25T11:36:22.882Z,49.10
2019-04-25T11:39:09.329Z,47.90
2019-04-25T11:41:38.106Z,46.70
2019-04-25T11:44:06.810Z,47.60
2019-04-25T11:46:35.820Z,48.20
2019-04-25T11:49:07.626Z,48.60
2019-04-25T11:51:36.269Z,48.90
2019-04-25T11:54:04.937Z,46.70
2019-04-25T11:56:34.227Z,46.80
2019-04-25T11:59:04.445Z,45.70
2019-04-25T12:01:33.655Z,44.50
2019-04-25T12:04:04.005Z,43.10
2019-04-25T12:06:33.494Z,42.30
2019-04-25T12:09:03.984Z,41.40
2019-04-25T12:11:33.985Z,42.40
2019-04-25T12:14:04.244Z,43.10
2019-04-25T12:16:32.871Z,43.30
2019-04-25T12:19:01.335Z,42.10
2019-04-25T12:21:29.857Z,42.80
2019-04-25T12:23:58.333Z,43.70
2019-04-25T12:26:26.872Z,42.00
2019-04-25T12:28:56.590Z,41.70
2019-04-25T12:31:25.409Z,42.10
2019-04-25T12:33:55.228Z,40.90
2019-04-25T12:36:24.173Z,40.00
2019-04-25T12:38:54.234Z,37.80
2019-04-25T12:41:22.903Z,37.10
2019-04-25T12:43:58.876Z,35.70
2019-04-25T12:46:28.968Z,37.00
2019-04-25T12:48:57.729Z,36.80
2019-04-25T12:51:26.433Z,36.20
2019-04-25T12:53:55.831Z,35.50
2019-04-25T12:56:24.840Z,36.30
2019-04-25T12:58:55.093Z,36.00
2019-04-25T13:01:24.909Z,36.20
2019-04-25T13:03:54.341Z,36.60
2019-04-25T13:06:23.831Z,36.20
2019-04-25T13:08:54.096Z,37.80
2019-04-25T13:11:23.988Z,37.30
2019-04-25T13:13:52.686Z,36.60
2019-04-25T13:16:21.280Z,37.40
2019-04-25T13:18:49.872Z,37.50
2019-04-25T13:21:18.440Z,36.80
2019-04-25T13:23:46.899Z,35.50
2019-04-25T13:26:17.056Z,34.40
2019-04-25T13:28:50.097Z,33.00
2019-04-25T13:31:23.374Z,33.70
2019-04-25T13:34:04.677Z,36.10
2019-04-25T13:36:34.708Z,38.20
2019-04-25T13:39:07.165Z,36.90
2019-04-25T13:41:35.756Z,35.70
2019-04-25T13:44:05.126Z,35.30
2019-04-25T13:46:34.326Z,35.50
2019-04-25T13:49:04.267Z,35.60
2019-04-25T13:51:33.241Z,34.70
2019-04-25T13:54:01.185Z,34.20
2019-04-25T13:56:30.701Z,33.60
2019-04-25T13:58:59.441Z,34.60
2019-04-25T14:01:28.062Z,33.50
2019-04-25T14:03:56.774Z,31.40
2019-04-25T14:06:26.163Z,33.10
2019-04-25T14:08:55.200Z,32.00
2019-04-25T14:11:24.189Z,33.20
2019-04-25T14:13:52.917Z,33.80
2019-04-25T14:16:25.390Z,34.10
2019-04-25T14:19:07.322Z,33.00
2019-04-25T14:21:35.785Z,33.70
2019-04-25T14:24:04.877Z,33.80
2019-04-25T14:26:33.390Z,33.00
2019-04-25T14:29:01.981Z,33.50
2019-04-25T14:31:41.529Z,34.70
2019-04-25T14:34:01.214Z,36.00
2019-04-25T14:36:28.972Z,35.00
2019-04-25T14:38:57.491Z,35.00
2019-04-25T14:41:26.101Z,36.60
2019-04-25T14:43:54.593Z,37.20
2019-04-25T14:46:23.045Z,36.30
2019-04-25T14:48:51.491Z,35.70
2019-04-25T14:51:20.044Z,35.80
2019-04-25T14:53:48.567Z,37.00
2019-04-25T14:56:18.662Z,37.90
2019-04-25T14:58:47.150Z,38.00
2019-04-25T15:01:17.313Z,38.10
2019-04-25T15:03:45.952Z,39.10
2019-04-25T15:06:14.520Z,40.40
2019-04-25T15:08:42.952Z,38.30
2019-04-25T15:11:11.402Z,36.40
2019-04-25T15:13:40.006Z,35.50
2019-04-25T15:16:08.525Z,36.80
2019-04-25T15:18:46.636Z,34.60
2019-04-25T15:21:07.524Z,33.60
2019-04-25T15:23:36.034Z,31.90
2019-04-25T15:26:04.652Z,30.50
2019-04-25T15:28:33.155Z,32.60
2019-04-25T15:31:01.623Z,33.50
2019-04-25T15:33:30.377Z,33.70
2019-04-25T15:36:00.841Z,36.20
2019-04-25T15:38:33.577Z,36.00
2019-04-25T15:41:06.505Z,36.60
2019-04-25T15:43:42.096Z,38.00
2019-04-25T15:46:12.212Z,37.20
2019-04-25T15:48:41.196Z,37.60
2019-04-25T15:51:08.933Z,37.50
2019-04-25T15:53:38.117Z,37.00
2019-04-25T15:56:06.757Z,37.60
2019-04-25T15:58:35.273Z,39.40
2019-04-25T16:01:06.159Z,39.20
2019-04-25T16:03:35.216Z,39.70
2019-04-25T16:06:04.022Z,40.00
2019-04-25T16:08:33.013Z,40.90
2019-04-25T16:11:00.868Z,41.30
2019-04-25T16:13:30.171Z,41.10
2019-04-25T16:15:58.852Z,40.90
2019-04-25T16:18:27.377Z,41.60
2019-04-25T16:20:56.941Z,41.90
2019-04-25T16:23:25.498Z,41.70
2019-04-25T16:25:53.942Z,42.10
2019-04-25T16:28:22.403Z,42.80
2019-04-25T16:30:50.964Z,43.20
2019-04-25T16:33:19.684Z,43.30
2019-04-25T16:35:48.200Z,42.90
2019-04-25T16:38:17.162Z,42.80
2019-04-25T16:40:45.737Z,43.10
2019-04-25T16:43:15.892Z,43.80
2019-04-25T16:45:44.360Z,44.70
2019-04-25T16:48:12.945Z,44.60
2019-04-25T16:50:42.082Z,45.80
2019-04-25T16:53:09.918Z,46.10
2019-04-25T16:55:38.824Z,45.50
2019-04-25T16:58:07.703Z,46.00
2019-04-25T17:00:40.893Z,46.30
2019-04-25T17:03:09.605Z,46.70
2019-04-25T17:05:39.316Z,46.80
2019-04-25T17:08:08.136Z,47.20
2019-04-25T17:10:36.909Z,47.30
2019-04-25T17:13:05.620Z,47.30
2019-04-25T17:15:41.795Z,47.20
2019-04-25T17:18:14.450Z,47.40
2019-04-25T17:20:45.136Z,47.60
2019-04-25T17:23:13.690Z,47.90
2019-04-25T17:25:42.200Z,48.10
2019-04-25T17:28:10.723Z,48.30
2019-04-25T17:30:40.853Z,48.30
2019-04-25T17:33:27.059Z,48.80
2019-04-25T17:36:00.262Z,48.90
2019-04-25T17:38:31.101Z,49.40
2019-04-25T17:40:59.919Z,49.60
2019-04-25T17:43:28.396Z,49.90
2019-04-25T17:45:56.912Z,50.10
2019-04-25T17:48:25.368Z,50.20
2019-04-25T17:50:53.980Z,50.90
2019-04-25T17:53:22.575Z,50.70
2019-04-25T17:55:51.084Z,50.80
2019-04-25T17:58:19.579Z,51.10
2019-04-25T18:00:48.476Z,51.50
2019-04-25T18:03:17.368Z,51.90
2019-04-25T18:05:46.097Z,52.30
2019-04-25T18:08:14.802Z,53.00
2019-04-25T18:10:44.190Z,52.90
2019-04-25T18:13:12.925Z,53.20
2019-04-25T18:15:57.745Z,53.60
2019-04-25T18:18:45.713Z,53.80
2019-04-25T18:21:14.184Z,54.00
2019-04-25T18:23:59.332Z,54.30
2019-04-25T18:26:35.326Z,54.60
2019-04-25T18:29:17.652Z,55.00
2019-04-25T18:31:46.402Z,55.30
2019-04-25T18:34:16.610Z,55.80
2019-04-25T18:36:49.720Z,56.00
2019-04-25T18:39:25.880Z,56.20
2019-04-25T18:42:10.772Z,56.20
2019-04-25T18:44:39.976Z,56.60
2019-04-25T18:47:07.959Z,56.90
2019-04-25T18:49:37.658Z,57.30
2019-04-25T18:52:08.336Z,57.70
2019-04-25T18:54:38.775Z,57.80
2019-04-25T18:57:27.299Z,57.90
2019-04-25T18:59:57.444Z,58.20
2019-04-25T19:02:33.312Z,58.70
2019-04-25T19:05:09.424Z,58.80
2019-04-25T19:07:38.620Z,59.30
2019-04-25T19:10:09.056Z,59.20
2019-04-25T19:12:38.753Z,59.50
2019-04-25T19:15:08.255Z,60.00
2019-04-25T19:17:36.729Z,59.70
2019-04-25T19:20:05.908Z,60.10
2019-04-25T19:22:34.391Z,60.10
2019-04-25T19:25:02.842Z,60.20
2019-04-25T19:27:31.365Z,60.50
2019-04-25T19:29:59.892Z,60.80
2019-04-25T19:32:28.733Z,60.50
2019-04-25T19:34:57.248Z,60.50
2019-04-25T19:37:25.728Z,61.00
2019-04-25T19:40:07.686Z,61.30
2019-04-25T19:42:41.109Z,61.50
2019-04-25T19:45:10.494Z,62.00
2019-04-25T19:47:38.975Z,62.30
2019-04-25T19:50:07.792Z,62.50
2019-04-25T19:52:36.348Z,62.70
2019-04-25T19:55:06.432Z,62.70
2019-04-25T19:57:34.905Z,62.70
2019-04-25T20:00:04.327Z,62.90
2019-04-25T20:02:33.641Z,63.30
2019-04-25T20:05:13.054Z,63.30
2019-04-25T20:07:48.517Z,63.50
2019-04-25T20:10:22.506Z,63.80
2019-04-25T20:12:53.361Z,64.30
2019-04-25T20:15:22.260Z,64.60
2019-04-25T20:17:51.886Z,64.70
2019-04-25T20:20:20.493Z,64.90
2019-04-25T20:22:50.270Z,65.30
2019-04-25T20:25:22.044Z,65.30
2019-04-25T20:27:50.810Z,65.60
2019-04-25T20:30:19.545Z,65.30
2019-04-25T20:32:49.009Z,65.70
2019-04-25T20:35:17.752Z,65.60
2019-04-25T20:37:47.372Z,65.50
2019-04-25T20:40:16.588Z,65.60
2019-04-25T20:42:45.580Z,65.90
2019-04-25T20:45:15.876Z,66.00
2019-04-25T20:47:44.545Z,66.30
2019-04-25T20:50:13.432Z,66.10
2019-04-25T20:52:41.967Z,66.30
2019-04-25T20:55:10.708Z,66.60
2019-04-25T20:57:39.168Z,66.40
2019-04-25T21:00:09.837Z,66.30
2019-04-25T21:02:38.320Z,66.40
2019-04-25T21:05:06.916Z,66.60
2019-04-25T21:07:35.359Z,66.70
2019-04-25T21:10:05.078Z,66.60
2019-04-25T21:12:33.524Z,66.90
2019-04-25T21:15:09.535Z,67.00
2019-04-25T21:17:42.341Z,67.00
2019-04-25T21:20:13.970Z,67.20
2019-04-25T21:22:42.445Z,66.70
2019-04-25T21:25:11.530Z,66.40
2019-04-25T21:27:40.118Z,66.40
2019-04-25T21:30:09.897Z,67.00
2019-04-25T21:32:53.093Z,67.90
2019-04-25T21:35:22.526Z,68.00
2019-04-25T21:37:51.124Z,68.50
2019-04-25T21:40:28.184Z,68.80
2019-04-25T21:42:58.549Z,68.70
2019-04-25T21:45:27.269Z,69.40
2019-04-25T21:47:56.901Z,69.80
2019-04-25T21:50:25.684Z,70.40
2019-04-25T21:52:54.451Z,70.80
2019-04-25T21:55:23.079Z,70.70
2019-04-25T21:57:51.798Z,71.60
2019-04-25T22:00:22.337Z,71.60
2019-04-25T22:02:51.093Z,72.70
2019-04-25T22:05:19.632Z,73.10
2019-04-25T22:07:48.448Z,73.30
2019-04-25T22:10:17.390Z,73.40
2019-04-25T22:12:45.901Z,73.40
2019-04-25T22:15:14.789Z,72.50
2019-04-25T22:17:43.269Z,72.80
2019-04-25T22:20:11.962Z,72.40
2019-04-25T22:22:40.784Z,72.40
2019-04-25T22:25:10.052Z,72.50
2019-04-25T22:27:38.736Z,72.80
2019-04-25T22:30:09.636Z,73.00
2019-04-25T22:32:40.045Z,73.60
2019-04-25T22:35:25.577Z,73.70
2019-04-25T22:37:54.190Z,73.80
2019-04-25T22:40:22.717Z,73.60
2019-04-25T22:42:51.225Z,73.30
2019-04-25T22:45:19.788Z,75.40
2019-04-25T22:47:48.509Z,74.20
2019-04-25T22:50:17.245Z,76.00
2019-04-25T22:52:45.870Z,74.10
2019-04-25T22:55:17.045Z,73.00
2019-04-25T22:57:45.779Z,72.10
2019-04-25T23:00:16.410Z,71.80
2019-04-25T23:02:52.576Z,72.10
2019-04-25T23:05:22.933Z,71.60
2019-04-25T23:07:51.453Z,71.20
2019-04-25T23:10:20.177Z,69.90
2019-04-25T23:12:50.813Z,69.50
2019-04-25T23:15:19.326Z,69.70
2019-04-25T23:17:48.211Z,68.00
2019-04-25T23:20:17.061Z,67.20
2019-04-25T23:22:45.501Z,66.60
2019-04-25T23:25:16.100Z,66.30
2019-04-25T23:27:55.032Z,66.20
2019-04-25T23:30:25.493Z,65.80
2019-04-25T23:32:53.941Z,66.40
2019-04-25T23:35:29.535Z,65.10
2019-04-25T23:37:52.584Z,65.90
2019-04-25T23:40:21.097Z,64.70
2019-04-25T23:42:49.592Z,64.80
2019-04-25T23:45:18.041Z,64.70
2019-04-25T23:47:46.561Z,64.50
2019-04-25T23:50:15.425Z,64.70
2019-04-25T23:52:43.916Z,64.60
2019-04-25T23:55:13.066Z,65.10
2019-04-25T23:57:41.693Z,65.20
